Time,TemperatureF,DewpointF,PressureIn,WindDirection,WindDirectionDegrees,WindSpeedMPH,WindSpeedGustMPH,Humidity,HourlyPrecipIn,Conditions,Clouds,dailyrainin,SolarRadiationWatts/m^2,SoftwareType,DateUTC
2013-05-06 00:02:00,75.0,66.0,29.93,ESE,123,4.0,7.0,74,-99.99,,,0.00,0.000000,,2013-05-06 10:02:00,
2013-05-06 00:12:00,75.0,66.0,29.93,ESE,123,4.0,7.0,74,-99.99,,,0.00,0.000000,,2013-05-06 10:12:00,
2013-05-06 01:32:00,76.0,67.0,29.91,SSE,164,5.0,9.0,73,-99.99,,,0.00,0.000000,,2013-05-06 11:32:00,
2013-05-06 01:42:00,76.0,67.0,29.91,SSE,164,5.0,9.0,73,-99.99,,,0.00,0.000000,,2013-05-06 11:42:00,
2013-05-06 01:52:00,76.0,67.0,29.91,SSE,164,5.0,9.0,73,-99.99,,,0.00,0.000000,,2013-05-06 11:52:00,
2013-05-06 02:01:00,76.0,67.0,29.91,SSE,164,5.0,9.0,73,-99.99,,,0.00,0.000000,,2013-05-06 12:01:00,
2013-05-06 02:12:00,76.0,67.0,29.91,SSE,164,5.0,9.0,73,-99.99,,,0.00,0.000000,,2013-05-06 12:12:00,
2013-05-06 02:42:00,76.0,66.0,29.89,South,181,7.0,11.0,72,0.00,,,0.00,0.000000,,2013-05-06 12:42:00,
2013-05-06 02:52:00,76.0,66.0,29.89,South,181,7.0,11.0,72,0.00,,,0.00,0.000000,,2013-05-06 12:52:00,
2013-05-06 03:01:00,76.0,66.0,29.89,South,181,7.0,11.0,72,0.00,,,0.00,0.000000,,2013-05-06 13:01:00,
2013-05-06 03:11:00,76.0,66.0,29.89,South,181,7.0,11.0,72,0.00,,,0.00,0.000000,,2013-05-06 13:11:00,
2013-05-06 03:42:00,74.0,66.0,29.87,SE,133,6.0,13.0,75,0.00,,,0.00,0.000000,,2013-05-06 13:42:00,
2013-05-06 03:52:00,74.0,66.0,29.87,SE,133,6.0,13.0,75,0.00,,,0.00,0.000000,,2013-05-06 13:52:00,
2013-05-06 04:01:00,74.0,66.0,29.87,SE,133,6.0,13.0,75,0.00,,,0.00,0.000000,,2013-05-06 14:01:00,
2013-05-06 04:11:00,74.0,66.0,29.87,SE,133,6.0,13.0,75,0.00,,,0.00,0.000000,,2013-05-06 14:11:00,
2013-05-06 04:42:00,73.0,64.0,29.88,SE,127,4.0,7.0,74,0.00,,,0.00,0.000000,,2013-05-06 14:42:00,
2013-05-06 04:52:00,73.0,64.0,29.88,SE,127,4.0,7.0,74,0.00,,,0.00,0.000000,,2013-05-06 14:52:00,
2013-05-06 05:01:00,73.0,64.0,29.88,SE,127,4.0,7.0,74,0.00,,,0.00,0.000000,,2013-05-06 15:01:00,
2013-05-06 05:11:00,73.0,64.0,29.88,SE,127,4.0,7.0,74,0.00,,,0.00,0.000000,,2013-05-06 15:11:00,
2013-05-06 05:43:00,74.0,66.0,29.89,ESE,117,5.0,7.0,75,0.00,,,0.00,0.000000,,2013-05-06 15:43:00,
2013-05-06 05:53:00,74.0,66.0,29.89,ESE,117,5.0,7.0,75,0.00,,,0.00,0.000000,,2013-05-06 15:53:00,
2013-05-06 06:03:00,74.0,66.0,29.89,ESE,117,5.0,7.0,75,0.00,,,0.00,0.000000,,2013-05-06 16:03:00,
2013-05-06 06:13:00,74.0,66.0,29.89,ESE,117,5.0,7.0,75,0.00,,,0.00,0.000000,,2013-05-06 16:13:00,
2013-05-06 06:42:00,72.0,64.0,29.90,ESE,115,5.0,7.0,77,0.00,,,0.00,4.000000,,2013-05-06 16:42:00,
2013-05-06 06:52:00,72.0,64.0,29.90,ESE,115,5.0,7.0,77,0.00,,,0.00,4.000000,,2013-05-06 16:52:00,
2013-05-06 07:02:00,72.0,64.0,29.90,ESE,115,5.0,7.0,77,0.00,,,0.00,4.000000,,2013-05-06 17:02:00,
2013-05-06 07:11:00,72.0,64.0,29.90,ESE,115,5.0,7.0,77,0.00,,,0.00,4.000000,,2013-05-06 17:11:00,
2013-05-06 07:42:00,77.0,63.0,29.91,SE,135,6.0,10.0,63,0.00,,,0.00,95.000000,,2013-05-06 17:42:00,
2013-05-06 07:52:00,77.0,63.0,29.91,SE,135,6.0,10.0,63,0.00,,,0.00,95.000000,,2013-05-06 17:52:00,
2013-05-06 08:01:00,77.0,63.0,29.91,SE,135,6.0,10.0,63,0.00,,,0.00,95.000000,,2013-05-06 18:01:00,
2013-05-06 08:11:00,77.0,63.0,29.91,SE,135,6.0,10.0,63,0.00,,,0.00,95.000000,,2013-05-06 18:11:00,
2013-05-06 08:43:00,79.0,64.0,29.93,SSE,152,8.0,12.0,60,0.00,,,0.00,324.000000,,2013-05-06 18:43:00,
2013-05-06 08:52:00,79.0,64.0,29.93,SSE,152,8.0,12.0,60,0.00,,,0.00,324.000000,,2013-05-06 18:52:00,
2013-05-06 09:01:00,79.0,64.0,29.93,SSE,152,8.0,12.0,60,0.00,,,0.00,324.000000,,2013-05-06 19:01:00,
2013-05-06 09:11:00,79.0,64.0,29.93,SSE,152,8.0,12.0,60,0.00,,,0.00,324.000000,,2013-05-06 19:11:00,
2013-05-06 09:42:00,81.0,65.0,29.95,SSE,164,9.0,12.0,58,0.00,,,0.00,587.000000,,2013-05-06 19:42:00,
2013-05-06 09:52:00,81.0,65.0,29.95,SSE,164,9.0,12.0,58,0.00,,,0.00,587.000000,,2013-05-06 19:52:00,
2013-05-06 10:01:00,81.0,65.0,29.95,SSE,164,9.0,12.0,58,0.00,,,0.00,587.000000,,2013-05-06 20:01:00,
2013-05-06 10:11:00,81.0,65.0,29.95,SSE,164,9.0,12.0,58,0.00,,,0.00,587.000000,,2013-05-06 20:11:00,
2013-05-06 10:42:00,82.0,64.0,29.95,South,170,9.0,15.0,55,0.00,,,0.00,813.000000,,2013-05-06 20:42:00,
2013-05-06 10:52:00,82.0,64.0,29.95,South,170,9.0,15.0,55,0.00,,,0.00,813.000000,,2013-05-06 20:52:00,
2013-05-06 11:01:00,82.0,64.0,29.95,South,170,9.0,15.0,55,0.00,,,0.00,813.000000,,2013-05-06 21:01:00,
2013-05-06 11:11:00,82.0,64.0,29.95,South,170,9.0,15.0,55,0.00,,,0.00,813.000000,,2013-05-06 21:11:00,
2013-05-06 11:33:00,83.0,66.0,29.94,South,185,10.0,16.0,57,0.00,,,0.00,988.000000,,2013-05-06 21:33:00,
2013-05-06 11:43:00,83.0,66.0,29.94,South,185,10.0,16.0,57,0.00,,,0.00,988.000000,,2013-05-06 21:43:00,
2013-05-06 11:53:00,83.0,66.0,29.94,South,185,10.0,16.0,57,0.00,,,0.00,988.000000,,2013-05-06 21:53:00,
2013-05-06 12:03:00,83.0,66.0,29.94,South,185,10.0,16.0,57,0.00,,,0.00,988.000000,,2013-05-06 22:03:00,
2013-05-06 12:12:00,83.0,66.0,29.94,South,185,10.0,16.0,57,0.00,,,0.00,988.000000,,2013-05-06 22:12:00,
2013-05-06 12:45:00,83.0,67.0,29.92,South,178,9.0,16.0,58,0.00,,,0.00,1092.000000,,2013-05-06 22:45:00,
2013-05-06 12:52:00,83.0,67.0,29.92,South,178,9.0,16.0,58,0.00,,,0.00,1092.000000,,2013-05-06 22:52:00,
2013-05-06 13:02:00,83.0,67.0,29.92,South,178,9.0,16.0,58,0.00,,,0.00,1092.000000,,2013-05-06 23:02:00,
2013-05-06 13:11:00,83.0,67.0,29.92,South,178,9.0,16.0,58,0.00,,,0.00,1092.000000,,2013-05-06 23:11:00,
2013-05-06 13:42:00,83.0,67.0,29.90,SSW,208,10.0,14.0,59,0.00,,,0.00,1090.000000,,2013-05-06 23:42:00,
2013-05-06 13:52:00,83.0,67.0,29.90,SSW,208,10.0,14.0,59,0.00,,,0.00,1090.000000,,2013-05-06 23:52:00,
2013-05-06 14:01:00,83.0,67.0,29.90,SSW,208,10.0,14.0,59,0.00,,,0.00,1090.000000,,2013-05-07 00:01:00,
2013-05-06 14:11:00,83.0,67.0,29.90,SSW,208,10.0,14.0,59,0.00,,,0.00,1090.000000,,2013-05-07 00:11:00,
2013-05-06 14:42:00,81.0,68.0,29.89,SSW,204,9.0,14.0,64,0.00,,,0.00,803.000000,,2013-05-07 00:42:00,
2013-05-06 14:52:00,81.0,68.0,29.89,SSW,204,9.0,14.0,64,0.00,,,0.00,803.000000,,2013-05-07 00:52:00,
2013-05-06 15:01:00,81.0,68.0,29.89,SSW,204,9.0,14.0,64,0.00,,,0.00,803.000000,,2013-05-07 01:01:00,
2013-05-06 15:11:00,81.0,68.0,29.89,SSW,204,9.0,14.0,64,0.00,,,0.00,803.000000,,2013-05-07 01:11:00,
2013-05-06 15:42:00,83.0,68.0,29.88,SW,225,9.0,14.0,61,0.00,,,0.00,704.000000,,2013-05-07 01:42:00,
2013-05-06 15:52:00,83.0,68.0,29.88,SW,225,9.0,14.0,61,0.00,,,0.00,704.000000,,2013-05-07 01:52:00,
2013-05-06 16:02:00,83.0,68.0,29.88,SW,225,9.0,14.0,61,0.00,,,0.00,704.000000,,2013-05-07 02:02:00,
2013-05-06 16:11:00,83.0,68.0,29.88,SW,225,9.0,14.0,61,0.00,,,0.00,704.000000,,2013-05-07 02:11:00,
2013-05-06 16:32:00,82.0,68.0,29.87,WSW,237,9.0,13.0,62,0.00,,,0.00,776.000000,,2013-05-07 02:32:00,
2013-05-06 16:42:00,82.0,68.0,29.87,WSW,237,9.0,13.0,62,0.00,,,0.00,776.000000,,2013-05-07 02:42:00,
2013-05-06 16:52:00,82.0,68.0,29.87,WSW,237,9.0,13.0,62,0.00,,,0.00,776.000000,,2013-05-07 02:52:00,
2013-05-06 17:01:00,82.0,68.0,29.87,WSW,237,9.0,13.0,62,0.00,,,0.00,776.000000,,2013-05-07 03:01:00,
2013-05-06 17:11:00,82.0,68.0,29.87,WSW,237,9.0,13.0,62,0.00,,,0.00,776.000000,,2013-05-07 03:11:00,
2013-05-06 17:43:00,79.0,67.0,29.87,WSW,244,6.0,11.0,67,0.00,,,0.00,231.000000,,2013-05-07 03:43:00,
2013-05-06 17:53:00,79.0,67.0,29.87,WSW,244,6.0,11.0,67,0.00,,,0.00,231.000000,,2013-05-07 03:53:00,
2013-05-06 18:02:00,79.0,67.0,29.87,WSW,244,6.0,11.0,67,0.00,,,0.00,231.000000,,2013-05-07 04:02:00,
2013-05-06 18:12:00,79.0,67.0,29.87,WSW,244,6.0,11.0,67,0.00,,,0.00,231.000000,,2013-05-07 04:12:00,
2013-05-06 18:42:00,78.0,67.0,29.89,WSW,240,5.0,9.0,68,0.00,,,0.00,95.000000,,2013-05-07 04:42:00,
2013-05-06 18:53:00,78.0,67.0,29.89,WSW,240,5.0,9.0,68,0.00,,,0.00,95.000000,,2013-05-07 04:53:00,
2013-05-06 19:02:00,78.0,67.0,29.89,WSW,240,5.0,9.0,68,0.00,,,0.00,95.000000,,2013-05-07 05:02:00,
2013-05-06 19:12:00,78.0,67.0,29.89,WSW,240,5.0,9.0,68,0.00,,,0.00,95.000000,,2013-05-07 05:12:00,
2013-05-06 19:42:00,77.0,66.0,29.91,WSW,256,4.0,6.0,69,0.00,,,0.00,23.000000,,2013-05-07 05:42:00,
2013-05-06 19:52:00,77.0,66.0,29.91,WSW,256,4.0,6.0,69,0.00,,,0.00,23.000000,,2013-05-07 05:52:00,
2013-05-06 20:02:00,77.0,66.0,29.91,WSW,256,4.0,6.0,69,0.00,,,0.00,23.000000,,2013-05-07 06:02:00,
2013-05-06 20:12:00,77.0,66.0,29.91,WSW,256,4.0,6.0,69,0.00,,,0.00,23.000000,,2013-05-07 06:12:00,
2013-05-06 20:32:00,77.0,66.0,29.93,West,262,3.0,5.0,70,0.00,,,0.00,0.000000,,2013-05-07 06:32:00,
2013-05-06 20:42:00,77.0,66.0,29.93,West,262,3.0,5.0,70,0.00,,,0.00,0.000000,,2013-05-07 06:42:00,
2013-05-06 20:52:00,77.0,66.0,29.93,West,262,3.0,5.0,70,0.00,,,0.00,0.000000,,2013-05-07 06:52:00,
2013-05-06 21:02:00,77.0,66.0,29.93,West,262,3.0,5.0,70,0.00,,,0.00,0.000000,,2013-05-07 07:02:00,
2013-05-06 21:11:00,77.0,66.0,29.93,West,262,3.0,5.0,70,0.00,,,0.00,0.000000,,2013-05-07 07:11:00,
2013-05-06 21:42:00,76.0,67.0,29.96,NE,52,5.0,7.0,74,0.00,,,0.00,0.000000,,2013-05-07 07:42:00,
2013-05-06 21:52:00,76.0,67.0,29.96,NE,52,5.0,7.0,74,0.00,,,0.00,0.000000,,2013-05-07 07:52:00,
2013-05-06 22:02:00,76.0,67.0,29.96,NE,52,5.0,7.0,74,0.00,,,0.00,0.000000,,2013-05-07 08:02:00,
2013-05-06 22:11:00,76.0,67.0,29.96,NE,52,5.0,7.0,74,0.00,,,0.00,0.000000,,2013-05-07 08:11:00,
2013-05-06 22:42:00,76.0,66.0,29.97,ENE,67,3.0,6.0,72,0.00,,,-99.99,0.000000,,2013-05-07 08:42:00,
2013-05-06 22:52:00,76.0,66.0,29.97,ENE,67,3.0,6.0,72,0.00,,,-99.99,0.000000,,2013-05-07 08:52:00,
2013-05-06 23:01:00,76.0,66.0,29.97,ENE,67,3.0,6.0,72,0.00,,,-99.99,0.000000,,2013-05-07 09:01:00,
2013-05-06 23:11:00,76.0,66.0,29.97,ENE,67,3.0,6.0,72,0.00,,,-99.99,0.000000,,2013-05-07 09:11:00,
2013-05-06 23:33:00,73.0,66.0,29.96,ENE,57,3.0,6.0,78,0.00,,,0.00,0.000000,,2013-05-07 09:33:00,
2013-05-06 23:43:00,73.0,66.0,29.96,ENE,57,3.0,6.0,78,0.00,,,0.00,0.000000,,2013-05-07 09:43:00,
2013-05-06 23:52:00,73.0,66.0,29.96,ENE,57,3.0,6.0,78,0.00,,,0.00,0.000000,,2013-05-07 09:52:00,